Station: Loxton

  Atmospheric Gas Attenuation - ITU Rec 676-11   --------------- db/100km ---------------
Date Time Temp RH % AH g/m3 Dew Point Wind Direction Speed kph Gust kph Barometer mB Rainfall Since 9am 24GHz 47GHz 76GHz 122GHz 134GHz 241GHz
03 08:40 16.2 55 7.58 7.2 17 20 1021 0 17.3 23.9 35.0 91.7 83.2 285.4
03 08:30 15.9 57 7.72 7.4 17 22 1021.1 0 17.6 24.2 35.7 93.5 85.2 292.6
03 08:20 15.5 58 7.67 7.3 17 19 1021 0 17.5 24.2 35.7 93.4 85.0 291.8
03 08:10 15.1 59 7.61 7.2 19 22 1021 0 17.4 24.3 35.6 93.3 84.7 290.6
03 08:00 14.9 63 8.03 7.9 15 20 1020.9 0 18.3 25.0 37.3 97.8 90.3 310.0
03 07:50 14.3 63 7.74 7.4 15 19 1020.9 0 17.7 24.7 36.5 95.5 87.2 299.3
03 07:40 14 66 7.96 7.8 9 13 1020.9 0 18.2 25.1 37.5 98.2 90.4 310.4
03 07:30 13.4 67 7.79 7.4 11 15 1020.8 0 17.9 25.0 37.1 97.1 88.9 305.0
03 07:20 12.8 69 7.73 7.3 13 15 1020.6 0 17.8 25.1 37.1 97.2 88.8 304.5
03 07:10 12.3 71 7.71 7.2 13 17 1020.5 0 17.8 25.2 37.3 97.6 89.1 305.5
03 07:00 11.9 72 7.63 7 13 17 1020.5 0 17.6 25.1 37.2 97.3 88.5 303.4
03 06:50 11.4 75 7.7 7.1 9 13 1020.4 0 17.8 25.4 37.7 98.6 90.0 308.5
03 06:40 10.9 76 7.56 6.8 13 13 1020.4 0 17.5 25.3 37.3 97.7 88.7 304.0
03 06:30 10.6 77 7.52 6.7 13 15 1020.2 0 17.4 25.3 37.3 97.7 88.5 303.2
03 06:20 10.3 78 7.47 6.6 13 13 1020.1 0 17.3 25.3 37.2 97.5 88.1 302.0
03 06:10 10.2 79 7.52 6.7 13 13 1019.9 0 17.4 25.4 37.5 98.1 88.9 304.7
03 06:00 10.1 79 7.47 6.6 11 15 1019.9 0 17.3 25.4 37.3 97.7 88.4 302.7
03 05:50 9.9 80 7.47 6.6 11 11 1019.9 0 17.3 25.4 37.4 98.0 88.6 303.5
03 05:40 9.8 80 7.42 6.5 9 11 1019.7 0 17.2 25.4 37.3 97.5 88.0 301.5
03 05:30 10.1 79 7.47 6.6 7 11 1019.6 0 17.3 25.4 37.3 97.7 88.3 302.7
03 05:20 10.2 78 7.42 6.5 9 11 1019.7 0 17.2 25.3 37.1 97.0 87.6 300.0
03 05:00 10.4 77 7.42 6.5 9 11 1019.5 0 17.2 25.2 37.0 96.8 87.3 299.2
03 04:50 10.5 77 7.47 6.6 9 11 1019.4 0 17.3 25.2 37.1 97.2 87.9 301.1
03 04:40 10.6 76 7.42 6.6 9 9 1019.5 0 17.2 25.1 36.9 96.5 87.1 298.4
03 04:30 10.6 76 7.42 6.6 11 17 1019.4 0 17.2 25.1 36.9 96.5 87.1 298.4
03 04:20 10.6 76 7.42 6.6 11 17 1019.4 0 17.2 25.1 36.9 96.5 87.1 298.4
03 04:10 10.7 76 7.47 6.6 9 11 1019.5 0 17.3 25.2 37.0 96.9 87.6 300.3
03 04:00 10.7 76 7.47 6.6 9 15 1019.7 0 17.3 25.2 37.0 96.9 87.7 300.4
03 03:50 10.8 75 7.41 6.6 9 11 1019.7 0 17.2 25.1 36.7 96.2 86.8 297.2
03 03:40 11.1 74 7.46 6.6 9 11 1019.6 0 17.3 25.1 36.8 96.3 87.1 298.4
03 03:30 11.3 73 7.45 6.6 9 13 1019.8 0 17.2 25.0 36.7 96.0 86.7 297.2
03 03:20 11.5 72 7.44 6.6 11 15 1019.8 0 17.2 24.9 36.6 95.7 86.4 296.0
03 03:10 11.6 72 7.48 6.7 11 13 1019.6 0 17.3 25.0 36.7 95.9 86.8 297.4
03 03:00 11.8 71 7.47 6.7 13 17 1019.8 0 17.3 24.9 36.5 95.6 86.4 296.3
03 02:50 12 70 7.46 6.7 15 17 1019.7 0 17.2 24.8 36.4 95.3 86.1 295.0
03 02:40 12 70 7.46 6.7 9 11 1019.8 0 17.2 24.8 36.4 95.3 86.1 295.0
03 02:30 12.2 69 7.45 6.7 13 19 1019.8 0 17.2 24.7 36.3 94.9 85.7 293.8
03 02:20 12.3 69 7.49 6.8 15 17 1019.5 0 17.3 24.8 36.4 95.2 86.1 295.2
03 02:10 12.3 69 7.49 6.8 19 24 1019.3 0 17.3 24.8 36.4 95.2 86.1 295.2
03 02:00 12.5 68 7.48 6.8 17 26 1019.3 0 17.3 24.7 36.2 94.8 85.8 294.0
03 01:50 12.5 68 7.48 6.8 15 19 1019.4 0 17.3 24.7 36.2 94.8 85.8 294.0
03 01:40 12.6 68 7.52 6.9 15 19 1019.5 0 17.3 24.7 36.4 95.1 86.2 295.5
03 01:30 12.7 67 7.46 6.7 15 22 1019.7 0 17.2 24.6 36.1 94.4 85.3 292.4
03 01:20 12.9 67 7.55 6.9 17 20 1019.8 0 17.4 24.7 36.3 95.1 86.3 295.8
03 01:10 12.9 67 7.55 6.9 15 20 1019.8 0 17.4 24.7 36.3 95.1 86.3 295.8
03 01:00 13 67 7.6 7 17 26 1019.8 0 17.5 24.8 36.5 95.5 86.8 297.7
03 00:50 13.2 66 7.58 7 15 20 1020 0 17.4 24.7 36.3 95.1 86.3 296.1
03 00:40 13.2 67 7.69 7.2 19 22 1019.8 0 17.7 24.9 36.8 96.2 87.7 301.0
03 00:30 13.4 66 7.67 7.2 19 26 1019.9 0 17.6 24.8 36.6 95.8 87.3 299.3
03 00:20 13.5 66 7.72 7.3 19 24 1020 0 17.7 24.8 36.7 96.2 87.8 301.3
03 00:10 13.5 66 7.72 7.3 13 17 1020.1 0 17.7 24.8 36.8 96.2 87.8 301.3
03 00:00 13.7 66 7.82 7.5 17 30 1020.2 0 17.9 24.9 37.1 97.0 88.9 305.1
02 23:50 13.8 65 7.74 7.3 19 24 1020.3 0 17.7 24.8 36.7 96.1 87.7 301.1
02 23:40 13.9 65 7.79 7.4 22 28 1020.1 0 17.9 24.8 36.8 96.5 88.3 302.9
02 23:30 14 64 7.72 7.3 19 30 1020 0 17.7 24.7 36.5 95.6 87.2 299.4
02 23:20 14.2 63 7.69 7.3 22 28 1019.9 0 17.6 24.6 36.3 95.0 86.6 297.2
02 23:10 14.3 63 7.74 7.4 19 26 1019.8 0 17.7 24.6 36.5 95.4 87.1 299.1
02 23:00 14.4 62 7.66 7.2 24 35 1019.5 0 17.6 24.5 36.1 94.5 86.0 295.1
02 22:50 14.6 62 7.76 7.4 26 35 1019.3 0 17.8 24.6 36.4 95.2 87.0 298.7
02 22:40 14.8 62 7.85 7.6 20 22 1019.4 0 17.9 24.6 36.6 95.9 88.0 302.0
02 22:30 15.1 61 7.87 7.6 24 33 1019.3 0 18.0 24.6 36.6 95.8 87.9 301.7
02 22:20 15.2 60 7.79 7.5 22 30 1019.1 0 17.8 24.4 36.2 94.8 86.7 297.8
02 22:10 15.4 59 7.75 7.4 22 30 1019 0 17.7 24.3 36.0 94.1 86.0 295.2
02 22:00 15.7 57 7.63 7.2 30 46 1018.8 0 17.4 24.0 35.4 92.6 84.2 288.8
02 21:50 16 56 7.63 7.2 35 43 1018.6 0 17.4 24.0 35.2 92.2 83.8 287.7
02 21:40 16.3 55 7.63 7.3 26 35 1018.2 0 17.4 23.9 35.1 91.8 83.5 286.5
02 21:30 16.6 54 7.63 7.3 28 43 1017.8 0 17.4 23.8 34.9 91.4 83.1 285.3
02 21:20 16.9 53 7.62 7.3 30 35 1017.6 0 17.4 23.7 34.8 91.0 82.7 283.8
02 21:10 17.3 52 7.66 7.4 35 44 1017.4 0 17.4 23.6 34.7 90.9 82.7 284.1
02 21:00 17.6 51 7.65 7.4 26 43 1017.4 0 17.4 23.5 34.6 90.5 82.3 282.6
02 20:50 18.1 49 7.57 7.2 22 26 1017.1 0 17.2 23.3 34.0 89.1 80.8 277.4
02 20:40 18.5 49 7.75 7.6 32 39 1016.8 0 17.6 23.4 34.5 90.4 82.5 283.5
02 20:30 18.8 47 7.57 7.3 24 35 1016.8 0 17.2 23.1 33.7 88.3 80.1 274.9
02 20:20 19.2 47 7.75 7.6 26 33 1016.6 0 17.5 23.2 34.2 89.6 81.8 281.0
02 20:10 19.5 46 7.72 7.6 26 32 1016.3 0 17.5 23.1 34.0 88.9 81.1 278.7
02 20:00 20 44 7.6 7.4 30 46 1016.1 0 17.2 22.8 33.3 87.2 79.2 271.9
02 19:50 20.5 43 7.65 7.5 26 33 1015.7 0 17.3 22.7 33.3 87.1 79.3 272.2
02 19:40 21.1 41 7.55 7.3 35 50 1015.3 0 17.0 22.4 32.7 85.5 77.5 266.1
02 19:30 21.9 40 7.72 7.7 33 54 1015.1 0 17.4 22.5 32.9 86.2 78.7 270.3
02 19:20 22.4 37 7.35 7 35 44 1014.5 0 16.6 21.8 31.5 82.3 73.9 253.8
02 19:10 23.1 34 7.03 6.4 35 48 1014.1 0 15.9 21.2 30.1 78.7 69.7 239.1
02 19:00 23.8 36 7.74 7.8 37 54 1013.7 0 17.3 22.0 32.2 84.3 77.0 264.5
02 18:50 23.9 36 7.79 7.9 46 59 1013.4 0 17.4 22.0 32.3 84.6 77.4 266.1
02 18:40 24.7 37 8.37 9 35 54 1013.1 0 18.6 22.6 34.0 89.1 83.1 286.2
02 18:30 24.9 40 9.16 10.4 37 52 1013.1 0 20.2 23.7 36.6 96.2 91.9 317.2
02 18:20 25.7 40 9.58 11.1 37 44 1013 0 21.1 24.1 37.7 99.2 95.9 331.1
02 18:10 25.6 41 9.76 11.4 44 59 1012.6 0 21.5 24.4 38.4 100.9 98.1 338.7
02 18:00 26.5 41 10.26 12.2 37 54 1012.6 0 22.4 24.8 39.8 104.6 102.8 355.4
02 17:50 27.2 38 9.89 12 37 46 1012.4 0 21.6 24.1 38.1 100.2 97.6 337.3
02 17:40 27.4 39 10.26 12.2 39 50 1012.2 0 22.4 24.6 39.3 103.4 101.6 351.4
02 17:30 27.9 38 10.28 12.3 39 52 1012.1 0 22.4 24.5 39.1 102.9 101.2 350.0
02 17:20 28.7 38 10.74 13 28 37 1012.1 0 23.3 24.9 40.4 106.2 105.5 365.1
02 17:10 29.1 37 10.69 12.9 35 50 1012 0 23.2 24.7 40.0 105.2 104.4 361.3
02 17:00 29.7 37 11.04 13.5 33 52 1011.9 0 23.9 25.1 40.9 107.7 107.6 372.7
02 16:50 30.4 36 11.16 13.7 35 46 1011.9 0 24.1 25.0 41.0 107.9 108.1 374.3
02 16:40 30.5 35 10.91 13.3 28 35 1011.9 0 23.6 24.7 40.1 105.5 105.1 363.8
02 16:30 31.7 34 11.3 13.9 32 46 1011.8 0 24.3 24.9 40.8 107.5 107.9 373.9
02 16:20 31.8 34 11.36 14 24 32 1011.6 0 24.4 24.9 41.0 107.9 108.4 375.7
02 16:10 32.2 33 11.26 13.9 30 39 1011.6 0 24.2 24.7 40.4 106.5 106.8 370.0
02 16:00 32.2 33 11.26 13.9 30 41 1011.5 0 24.2 24.7 40.4 106.4 106.8 369.9

Last Refresh: 03-Dec-2021 08:50:04

Bureau of Meteorology